sensor_id;sensor_type;location;lat;lon;timestamp;pressure;altitude;pressure_sealevel;temperature;humidity
9249;BME280;4660;41.768;26.198;2023-02-20T00:01:27;100974.09;;;10.94;100.00
9249;BME280;4660;41.768;26.198;2023-02-20T00:03:54;100969.81;;;10.82;100.00
9249;BME280;4660;41.768;26.198;2023-02-20T00:06:23;100973.88;;;10.76;100.00
9249;BME280;4660;41.768;26.198;2023-02-20T00:08:51;100979.47;;;10.94;100.00
9249;BME280;4660;41.768;26.198;2023-02-20T00:11:17;100973.56;;;11.19;100.00
9249;BME280;4660;41.768;26.198;2023-02-20T00:13:48;100981.25;;;11.34;100.00
9249;BME280;4660;41.768;26.198;2023-02-20T00:16:15;100990.63;;;11.29;100.00
9249;BME280;4660;41.768;26.198;2023-02-20T00:18:43;100988.41;;;10.94;100.00
9249;BME280;4660;41.768;26.198;2023-02-20T00:21:09;101001.28;;;10.91;100.00
9249;BME280;4660;41.768;26.198;2023-02-20T00:23:37;100995.28;;;10.78;100.00
9249;BME280;4660;41.768;26.198;2023-02-20T00:26:16;100997.88;;;10.89;100.00
9249;BME280;4660;41.768;26.198;2023-02-20T00:28:42;101009.78;;;10.86;100.00
9249;BME280;4660;41.768;26.198;2023-02-20T00:31:21;101009.47;;;10.80;100.00
9249;BME280;4660;41.768;26.198;2023-02-20T00:33:48;101007.78;;;10.88;100.00
9249;BME280;4660;41.768;26.198;2023-02-20T00:36:27;101011.22;;;11.00;100.00
9249;BME280;4660;41.768;26.198;2023-02-20T00:38:54;101003.72;;;11.03;100.00
9249;BME280;4660;41.768;26.198;2023-02-20T00:41:21;101006.94;;;10.88;100.00
9249;BME280;4660;41.768;26.198;2023-02-20T00:43:46;100994.34;;;10.58;100.00
9249;BME280;4660;41.768;26.198;2023-02-20T00:46:15;100983.03;;;10.64;100.00
9249;BME280;4660;41.768;26.198;2023-02-20T00:48:42;100987.22;;;10.47;100.00
9249;BME280;4660;41.768;26.198;2023-02-20T00:51:13;100971.28;;;10.34;100.00
9249;BME280;4660;41.768;26.198;2023-02-20T00:53:42;100981.69;;;10.79;100.00
9249;BME280;4660;41.768;26.198;2023-02-20T00:56:09;100970.28;;;11.06;100.00
9249;BME280;4660;41.768;26.198;2023-02-20T00:58:40;100979.41;;;11.24;100.00
9249;BME280;4660;41.768;26.198;2023-02-20T01:01:07;100982.41;;;11.31;100.00
9249;BME280;4660;41.768;26.198;2023-02-20T01:03:34;100980.41;;;11.33;100.00
9249;BME280;4660;41.768;26.198;2023-02-20T01:06:01;100989.59;;;11.21;100.00
9249;BME280;4660;41.768;26.198;2023-02-20T01:08:27;100983.19;;;11.12;100.00
9249;BME280;4660;41.768;26.198;2023-02-20T01:10:54;100976.97;;;11.12;100.00
9249;BME280;4660;41.768;26.198;2023-02-20T01:13:21;100993.00;;;11.23;100.00
9249;BME280;4660;41.768;26.198;2023-02-20T01:15:48;100992.25;;;11.11;100.00
9249;BME280;4660;41.768;26.198;2023-02-20T01:18:15;100983.97;;;10.84;100.00
9249;BME280;4660;41.768;26.198;2023-02-20T01:20:42;100953.88;;;10.59;100.00
9249;BME280;4660;41.768;26.198;2023-02-20T01:23:07;100990.25;;;10.94;100.00
9249;BME280;4660;41.768;26.198;2023-02-20T01:25:34;100982.88;;;10.96;100.00
9249;BME280;4660;41.768;26.198;2023-02-20T01:28:01;100996.19;;;10.97;100.00
9249;BME280;4660;41.768;26.198;2023-02-20T01:30:29;100990.94;;;10.56;100.00
9249;BME280;4660;41.768;26.198;2023-02-20T01:32:58;100996.00;;;10.28;100.00
9249;BME280;4660;41.768;26.198;2023-02-20T01:35:24;100973.44;;;9.99;100.00
9249;BME280;4660;41.768;26.198;2023-02-20T01:37:56;100964.56;;;9.45;100.00
9249;BME280;4660;41.768;26.198;2023-02-20T01:40:23;100982.94;;;9.82;100.00
9249;BME280;4660;41.768;26.198;2023-02-20T01:42:50;100979.00;;;10.07;100.00
9249;BME280;4660;41.768;26.198;2023-02-20T01:47:50;100986.56;;;9.92;100.00
9249;BME280;4660;41.768;26.198;2023-02-20T01:50:29;100997.41;;;9.70;100.00
9249;BME280;4660;41.768;26.198;2023-02-20T01:53:01;101012.00;;;9.56;100.00
9249;BME280;4660;41.768;26.198;2023-02-20T01:55:42;101012.41;;;9.51;100.00
9249;BME280;4660;41.768;26.198;2023-02-20T01:58:30;101005.44;;;9.81;100.00
9249;BME280;4660;41.768;26.198;2023-02-20T02:01:02;101001.88;;;9.59;100.00
9249;BME280;4660;41.768;26.198;2023-02-20T02:03:34;100992.84;;;9.81;100.00
9249;BME280;4660;41.768;26.198;2023-02-20T02:06:05;100999.16;;;10.12;100.00
9249;BME280;4660;41.768;26.198;2023-02-20T02:08:35;101000.59;;;10.16;100.00
9249;BME280;4660;41.768;26.198;2023-02-20T02:11:13;100967.97;;;10.00;100.00
9249;BME280;4660;41.768;26.198;2023-02-20T02:13:44;101022.28;;;10.04;100.00
9249;BME280;4660;41.768;26.198;2023-02-20T02:25:32;101012.78;;;10.00;100.00
9249;BME280;4660;41.768;26.198;2023-02-20T02:36:48;101022.22;;;9.62;100.00
9249;BME280;4660;41.768;26.198;2023-02-20T02:42:53;101032.88;;;9.09;100.00
9249;BME280;4660;41.768;26.198;2023-02-20T02:48:34;101021.78;;;8.91;100.00
9249;BME280;4660;41.768;26.198;2023-02-20T02:51:19;101029.94;;;8.90;100.00
9249;BME280;4660;41.768;26.198;2023-02-20T02:54:12;101045.19;;;8.89;100.00
9249;BME280;4660;41.768;26.198;2023-02-20T02:56:45;101051.41;;;8.90;100.00
9249;BME280;4660;41.768;26.198;2023-02-20T02:59:37;101053.09;;;8.57;100.00
9249;BME280;4660;41.768;26.198;2023-02-20T03:02:10;101052.00;;;8.37;100.00
9249;BME280;4660;41.768;26.198;2023-02-20T03:04:45;101063.09;;;8.55;100.00
9249;BME280;4660;41.768;26.198;2023-02-20T03:07:16;101068.13;;;8.93;100.00
9249;BME280;4660;41.768;26.198;2023-02-20T03:09:59;101065.94;;;9.09;100.00
9249;BME280;4660;41.768;26.198;2023-02-20T03:12:30;101032.63;;;8.56;100.00
9249;BME280;4660;41.768;26.198;2023-02-20T03:15:02;101058.13;;;8.84;100.00
9249;BME280;4660;41.768;26.198;2023-02-20T03:18:34;101054.47;;;8.96;100.00
9249;BME280;4660;41.768;26.198;2023-02-20T03:21:17;101067.66;;;8.88;100.00
9249;BME280;4660;41.768;26.198;2023-02-20T03:23:55;101060.78;;;9.06;100.00
9249;BME280;4660;41.768;26.198;2023-02-20T03:26:35;101065.19;;;9.30;100.00
9249;BME280;4660;41.768;26.198;2023-02-20T03:29:33;101068.22;;;9.25;100.00
9249;BME280;4660;41.768;26.198;2023-02-20T03:32:09;101075.91;;;9.30;100.00
9249;BME280;4660;41.768;26.198;2023-02-20T03:35:02;101078.84;;;9.38;100.00
9249;BME280;4660;41.768;26.198;2023-02-20T03:37:50;101079.91;;;9.35;100.00
9249;BME280;4660;41.768;26.198;2023-02-20T03:40:39;101083.88;;;9.63;100.00
9249;BME280;4660;41.768;26.198;2023-02-20T03:43:36;101082.94;;;9.64;100.00
9249;BME280;4660;41.768;26.198;2023-02-20T03:46:09;101084.00;;;9.62;100.00
9249;BME280;4660;41.768;26.198;2023-02-20T03:49:10;101074.91;;;9.42;100.00
9249;BME280;4660;41.768;26.198;2023-02-20T03:51:39;101069.09;;;9.03;100.00
9249;BME280;4660;41.768;26.198;2023-02-20T03:54:25;101090.81;;;9.23;100.00
9249;BME280;4660;41.768;26.198;2023-02-20T03:56:58;101091.75;;;9.33;100.00
9249;BME280;4660;41.768;26.198;2023-02-20T03:59:53;101104.69;;;9.28;100.00
9249;BME280;4660;41.768;26.198;2023-02-20T04:02:37;101104.69;;;9.50;100.00
9249;BME280;4660;41.768;26.198;2023-02-20T04:05:29;101094.28;;;9.57;100.00
9249;BME280;4660;41.768;26.198;2023-02-20T04:10:43;101114.22;;;9.43;100.00
9249;BME280;4660;41.768;26.198;2023-02-20T04:13:12;101116.44;;;9.38;100.00
9249;BME280;4660;41.768;26.198;2023-02-20T04:15:41;101098.38;;;9.06;100.00
9249;BME280;4660;41.768;26.198;2023-02-20T04:18:19;101095.09;;;8.80;100.00
9249;BME280;4660;41.768;26.198;2023-02-20T04:20:59;101093.59;;;9.32;100.00
9249;BME280;4660;41.768;26.198;2023-02-20T04:23:27;101099.06;;;9.42;100.00
9249;BME280;4660;41.768;26.198;2023-02-20T04:26:12;101099.56;;;9.47;100.00
9249;BME280;4660;41.768;26.198;2023-02-20T04:28:41;101099.91;;;9.54;100.00
9249;BME280;4660;41.768;26.198;2023-02-20T04:31:19;101099.91;;;9.65;100.00
9249;BME280;4660;41.768;26.198;2023-02-20T04:33:46;101081.69;;;9.69;100.00
9249;BME280;4660;41.768;26.198;2023-02-20T04:36:13;101068.97;;;9.71;100.00
9249;BME280;4660;41.768;26.198;2023-02-20T04:38:38;101100.13;;;9.73;100.00
9249;BME280;4660;41.768;26.198;2023-02-20T04:41:05;101075.72;;;9.65;100.00
9249;BME280;4660;41.768;26.198;2023-02-20T04:43:32;101115.34;;;9.84;100.00
9249;BME280;4660;41.768;26.198;2023-02-20T04:46:00;101110.59;;;9.76;100.00
9249;BME280;4660;41.768;26.198;2023-02-20T04:48:27;101092.22;;;9.60;100.00
9249;BME280;4660;41.768;26.198;2023-02-20T04:50:54;101092.19;;;9.72;100.00
9249;BME280;4660;41.768;26.198;2023-02-20T04:53:23;101092.28;;;9.70;100.00
9249;BME280;4660;41.768;26.198;2023-02-20T04:55:50;101100.19;;;9.51;100.00
9249;BME280;4660;41.768;26.198;2023-02-20T04:58:17;101108.09;;;9.52;100.00
9249;BME280;4660;41.768;26.198;2023-02-20T05:00:44;101115.44;;;9.50;100.00
9249;BME280;4660;41.768;26.198;2023-02-20T05:03:11;101114.47;;;9.51;100.00
9249;BME280;4660;41.768;26.198;2023-02-20T05:05:39;101115.91;;;9.55;100.00
9249;BME280;4660;41.768;26.198;2023-02-20T05:08:07;101123.97;;;9.55;100.00
9249;BME280;4660;41.768;26.198;2023-02-20T05:10:36;101111.91;;;9.38;100.00
9249;BME280;4660;41.768;26.198;2023-02-20T05:13:06;101136.31;;;9.35;100.00
9249;BME280;4660;41.768;26.198;2023-02-20T05:15:33;101127.63;;;9.54;100.00
9249;BME280;4660;41.768;26.198;2023-02-20T05:18:00;101134.13;;;9.52;100.00
9249;BME280;4660;41.768;26.198;2023-02-20T05:20:28;101148.13;;;9.67;100.00
9249;BME280;4660;41.768;26.198;2023-02-20T05:23:15;101146.41;;;9.65;100.00
9249;BME280;4660;41.768;26.198;2023-02-20T05:25:45;101145.66;;;9.75;100.00
9249;BME280;4660;41.768;26.198;2023-02-20T05:28:10;101148.09;;;9.78;100.00
9249;BME280;4660;41.768;26.198;2023-02-20T05:30:40;101158.81;;;9.89;100.00
9249;BME280;4660;41.768;26.198;2023-02-20T05:33:07;101166.25;;;9.97;100.00
9249;BME280;4660;41.768;26.198;2023-02-20T05:35:33;101177.56;;;10.11;100.00
9249;BME280;4660;41.768;26.198;2023-02-20T05:38:02;101168.72;;;10.20;100.00
9249;BME280;4660;41.768;26.198;2023-02-20T05:40:29;101177.38;;;10.35;100.00
9249;BME280;4660;41.768;26.198;2023-02-20T05:42:56;101181.59;;;10.49;100.00
9249;BME280;4660;41.768;26.198;2023-02-20T05:45:23;101189.63;;;10.60;100.00
9249;BME280;4660;41.768;26.198;2023-02-20T05:47:50;101185.91;;;10.72;100.00
9249;BME280;4660;41.768;26.198;2023-02-20T05:50:18;101194.63;;;10.86;100.00
9249;BME280;4660;41.768;26.198;2023-02-20T05:52:45;101209.06;;;10.85;100.00
9249;BME280;4660;41.768;26.198;2023-02-20T05:55:12;101226.91;;;10.86;100.00
9249;BME280;4660;41.768;26.198;2023-02-20T05:57:39;101230.75;;;10.83;100.00
9249;BME280;4660;41.768;26.198;2023-02-20T06:00:06;101152.31;;;10.35;100.00
9249;BME280;4660;41.768;26.198;2023-02-20T06:02:34;101148.28;;;10.40;100.00
9249;BME280;4660;41.768;26.198;2023-02-20T06:05:01;101190.75;;;10.79;100.00
9249;BME280;4660;41.768;26.198;2023-02-20T06:07:29;101198.72;;;11.01;100.00
9249;BME280;4660;41.768;26.198;2023-02-20T06:09:56;101213.94;;;11.12;100.00
9249;BME280;4660;41.768;26.198;2023-02-20T06:12:23;101213.19;;;11.30;100.00
9249;BME280;4660;41.768;26.198;2023-02-20T06:14:49;101216.53;;;11.44;100.00
9249;BME280;4660;41.768;26.198;2023-02-20T06:17:16;101215.53;;;11.45;100.00
9249;BME280;4660;41.768;26.198;2023-02-20T06:19:43;101238.03;;;11.65;100.00
9249;BME280;4660;41.768;26.198;2023-02-20T06:22:11;101229.28;;;11.72;100.00
9249;BME280;4660;41.768;26.198;2023-02-20T06:24:38;101236.63;;;11.70;100.00
9249;BME280;4660;41.768;26.198;2023-02-20T06:27:05;101204.47;;;11.48;100.00
9249;BME280;4660;41.768;26.198;2023-02-20T06:29:35;101232.66;;;11.65;100.00
9249;BME280;4660;41.768;26.198;2023-02-20T06:32:02;101233.75;;;11.62;100.00
9249;BME280;4660;41.768;26.198;2023-02-20T06:34:29;101242.28;;;11.67;100.00
9249;BME280;4660;41.768;26.198;2023-02-20T06:37:01;101246.53;;;11.70;100.00
9249;BME280;4660;41.768;26.198;2023-02-20T06:39:29;101227.13;;;11.66;100.00
9249;BME280;4660;41.768;26.198;2023-02-20T06:41:56;101241.66;;;11.84;100.00
9249;BME280;4660;41.768;26.198;2023-02-20T06:44:23;101239.88;;;11.95;100.00
9249;BME280;4660;41.768;26.198;2023-02-20T06:46:52;101233.66;;;12.04;100.00
9249;BME280;4660;41.768;26.198;2023-02-20T06:49:19;101209.38;;;12.04;100.00
9249;BME280;4660;41.768;26.198;2023-02-20T06:51:46;101246.50;;;12.40;100.00
9249;BME280;4660;41.768;26.198;2023-02-20T06:54:12;101230.59;;;12.37;99.44
9249;BME280;4660;41.768;26.198;2023-02-20T06:56:39;101236.56;;;12.51;98.24
9249;BME280;4660;41.768;26.198;2023-02-20T06:59:05;101268.41;;;12.86;97.82
9249;BME280;4660;41.768;26.198;2023-02-20T07:01:42;101257.44;;;12.97;97.89
9249;BME280;4660;41.768;26.198;2023-02-20T07:04:21;101269.06;;;13.07;97.32
9249;BME280;4660;41.768;26.198;2023-02-20T07:06:48;101256.84;;;13.13;96.25
9249;BME280;4660;41.768;26.198;2023-02-20T07:09:18;101261.13;;;13.25;96.06
9249;BME280;4660;41.768;26.198;2023-02-20T07:11:46;101263.09;;;13.33;96.94
9249;BME280;4660;41.768;26.198;2023-02-20T07:14:16;101236.63;;;13.46;93.97
9249;BME280;4660;41.768;26.198;2023-02-20T07:16:41;101231.00;;;13.57;89.29
9249;BME280;4660;41.768;26.198;2023-02-20T07:19:08;101233.91;;;13.83;85.26
9249;BME280;4660;41.768;26.198;2023-02-20T07:21:34;101249.47;;;13.99;84.73
9249;BME280;4660;41.768;26.198;2023-02-20T07:24:01;101246.41;;;14.12;82.05
9249;BME280;4660;41.768;26.198;2023-02-20T07:26:28;101254.34;;;14.23;80.34
9249;BME280;4660;41.768;26.198;2023-02-20T07:28:55;101247.66;;;14.17;79.45
9249;BME280;4660;41.768;26.198;2023-02-20T07:31:27;101242.19;;;14.27;78.30
9249;BME280;4660;41.768;26.198;2023-02-20T07:33:54;101276.97;;;14.49;75.63
9249;BME280;4660;41.768;26.198;2023-02-20T07:36:21;101284.88;;;14.61;75.63
9249;BME280;4660;41.768;26.198;2023-02-20T07:38:58;101268.72;;;14.69;74.62
9249;BME280;4660;41.768;26.198;2023-02-20T07:41:28;101253.56;;;14.58;74.16
9249;BME280;4660;41.768;26.198;2023-02-20T07:44:18;101251.84;;;14.57;73.75
9249;BME280;4660;41.768;26.198;2023-02-20T07:46:45;101266.78;;;14.79;74.17
9249;BME280;4660;41.768;26.198;2023-02-20T07:49:12;101267.88;;;14.86;74.01
9249;BME280;4660;41.768;26.198;2023-02-20T07:51:39;101268.31;;;14.99;73.25
9249;BME280;4660;41.768;26.198;2023-02-20T07:54:05;101269.25;;;14.90;71.61
9249;BME280;4660;41.768;26.198;2023-02-20T07:56:31;101249.03;;;14.84;69.88
9249;BME280;4660;41.768;26.198;2023-02-20T07:58:58;101261.19;;;14.98;70.57
9249;BME280;4660;41.768;26.198;2023-02-20T08:01:25;101278.81;;;15.20;70.86
9249;BME280;4660;41.768;26.198;2023-02-20T08:03:52;101291.91;;;15.25;70.28
9249;BME280;4660;41.768;26.198;2023-02-20T08:06:19;101272.19;;;15.14;68.08
9249;BME280;4660;41.768;26.198;2023-02-20T08:08:49;101245.94;;;14.97;69.19
9249;BME280;4660;41.768;26.198;2023-02-20T08:11:18;101304.53;;;15.16;68.85
9249;BME280;4660;41.768;26.198;2023-02-20T08:13:45;101286.03;;;15.11;67.05
9249;BME280;4660;41.768;26.198;2023-02-20T08:16:12;101267.78;;;14.96;67.47
9249;BME280;4660;41.768;26.198;2023-02-20T08:18:39;101314.16;;;15.10;67.19
9249;BME280;4660;41.768;26.198;2023-02-20T08:21:06;101300.03;;;15.25;67.48
9249;BME280;4660;41.768;26.198;2023-02-20T08:23:32;101306.41;;;15.41;65.28
9249;BME280;4660;41.768;26.198;2023-02-20T08:26:05;101300.47;;;15.38;64.91
9249;BME280;4660;41.768;26.198;2023-02-20T08:28:32;101285.00;;;15.30;63.65
9249;BME280;4660;41.768;26.198;2023-02-20T08:30:59;101301.53;;;15.45;63.52
9249;BME280;4660;41.768;26.198;2023-02-20T08:33:26;101291.28;;;15.31;62.27
9249;BME280;4660;41.768;26.198;2023-02-20T08:35:53;101291.84;;;15.42;61.02
9249;BME280;4660;41.768;26.198;2023-02-20T08:38:33;101294.16;;;15.55;60.81
9249;BME280;4660;41.768;26.198;2023-02-20T08:41:09;101296.25;;;15.61;59.43
9249;BME280;4660;41.768;26.198;2023-02-20T08:43:38;101290.94;;;15.86;58.01
9249;BME280;4660;41.768;26.198;2023-02-20T08:46:07;101299.44;;;15.83;56.60
9249;BME280;4660;41.768;26.198;2023-02-20T08:48:34;101284.25;;;15.98;57.73
9249;BME280;4660;41.768;26.198;2023-02-20T08:51:01;101302.75;;;16.03;56.33
9249;BME280;4660;41.768;26.198;2023-02-20T08:53:28;101293.13;;;16.08;55.89
9249;BME280;4660;41.768;26.198;2023-02-20T08:55:54;101311.75;;;16.03;54.08
9249;BME280;4660;41.768;26.198;2023-02-20T08:58:23;101304.63;;;16.02;53.98
9249;BME280;4660;41.768;26.198;2023-02-20T09:00:51;101311.81;;;16.19;52.84
9249;BME280;4660;41.768;26.198;2023-02-20T09:03:18;101312.56;;;16.30;50.79
9249;BME280;4660;41.768;26.198;2023-02-20T09:05:45;101308.66;;;16.40;48.60
9249;BME280;4660;41.768;26.198;2023-02-20T09:08:12;101286.28;;;16.38;43.67
9249;BME280;4660;41.768;26.198;2023-02-20T09:10:38;101293.25;;;16.57;42.45
9249;BME280;4660;41.768;26.198;2023-02-20T09:13:03;101280.03;;;16.62;43.34
9249;BME280;4660;41.768;26.198;2023-02-20T09:15:32;101295.47;;;16.54;42.84
9249;BME280;4660;41.768;26.198;2023-02-20T09:18:15;101310.59;;;16.64;42.52
9249;BME280;4660;41.768;26.198;2023-02-20T09:20:43;101300.06;;;16.61;42.40
9249;BME280;4660;41.768;26.198;2023-02-20T09:23:11;101294.63;;;16.61;43.21
9249;BME280;4660;41.768;26.198;2023-02-20T09:25:37;101279.69;;;16.57;42.28
9249;BME280;4660;41.768;26.198;2023-02-20T09:28:03;101301.81;;;16.78;41.04
9249;BME280;4660;41.768;26.198;2023-02-20T09:30:30;101317.13;;;16.80;40.60
9249;BME280;4660;41.768;26.198;2023-02-20T09:32:57;101307.13;;;16.88;40.76
9249;BME280;4660;41.768;26.198;2023-02-20T09:35:30;101298.13;;;16.80;40.02
9249;BME280;4660;41.768;26.198;2023-02-20T09:37:58;101316.97;;;16.89;37.96
9249;BME280;4660;41.768;26.198;2023-02-20T09:40:29;101330.00;;;16.69;38.02
9249;BME280;4660;41.768;26.198;2023-02-20T09:45:50;101350.91;;;16.77;38.65
9249;BME280;4660;41.768;26.198;2023-02-20T09:51:13;101337.22;;;17.19;38.09
9249;BME280;4660;41.768;26.198;2023-02-20T09:54:15;101332.44;;;17.13;37.72
9249;BME280;4660;41.768;26.198;2023-02-20T09:59:52;101351.47;;;17.21;37.80
9249;BME280;4660;41.768;26.198;2023-02-20T10:02:49;101378.88;;;17.36;36.50
9249;BME280;4660;41.768;26.198;2023-02-20T10:05:26;101356.59;;;17.24;37.28
9249;BME280;4660;41.768;26.198;2023-02-20T10:07:53;101348.63;;;17.23;38.20
9249;BME280;4660;41.768;26.198;2023-02-20T10:10:29;101361.00;;;17.33;35.61
9249;BME280;4660;41.768;26.198;2023-02-20T10:16:49;101338.22;;;17.59;32.54
9249;BME280;4660;41.768;26.198;2023-02-20T10:19:43;101330.75;;;17.61;34.41
9249;BME280;4660;41.768;26.198;2023-02-20T10:22:38;101344.69;;;17.58;36.13
9249;BME280;4660;41.768;26.198;2023-02-20T10:25:39;101315.09;;;17.47;34.04
9249;BME280;4660;41.768;26.198;2023-02-20T10:28:15;101310.81;;;17.69;34.72
9249;BME280;4660;41.768;26.198;2023-02-20T10:31:03;101318.97;;;17.93;34.90
9249;BME280;4660;41.768;26.198;2023-02-20T10:33:47;101310.94;;;18.00;31.72
9249;BME280;4660;41.768;26.198;2023-02-20T10:36:33;101326.56;;;18.06;31.71
9249;BME280;4660;41.768;26.198;2023-02-20T10:39:15;101323.56;;;18.01;31.69
9249;BME280;4660;41.768;26.198;2023-02-20T10:42:10;101328.66;;;17.96;31.40
9249;BME280;4660;41.768;26.198;2023-02-20T10:44:44;101360.31;;;17.88;30.29
9249;BME280;4660;41.768;26.198;2023-02-20T10:47:30;101323.56;;;17.84;29.81
9249;BME280;4660;41.768;26.198;2023-02-20T10:53:43;101312.66;;;17.93;30.19
9249;BME280;4660;41.768;26.198;2023-02-20T10:56:35;101321.53;;;17.95;29.88
9249;BME280;4660;41.768;26.198;2023-02-20T10:59:23;101323.56;;;17.84;29.85
9249;BME280;4660;41.768;26.198;2023-02-20T11:01:54;101319.16;;;17.83;29.63
9249;BME280;4660;41.768;26.198;2023-02-20T11:04:45;101307.75;;;17.64;29.59
9249;BME280;4660;41.768;26.198;2023-02-20T11:07:15;101318.81;;;17.70;30.66
9249;BME280;4660;41.768;26.198;2023-02-20T11:09:44;101307.09;;;17.86;30.60
9249;BME280;4660;41.768;26.198;2023-02-20T11:12:30;101313.34;;;17.95;30.35
9249;BME280;4660;41.768;26.198;2023-02-20T11:15:11;101319.47;;;17.97;30.49
9249;BME280;4660;41.768;26.198;2023-02-20T11:17:43;101298.44;;;17.74;30.01
9249;BME280;4660;41.768;26.198;2023-02-20T11:20:37;101327.50;;;17.82;29.45
9249;BME280;4660;41.768;26.198;2023-02-20T11:23:10;101326.66;;;17.65;29.92
9249;BME280;4660;41.768;26.198;2023-02-20T11:26:24;101333.16;;;17.72;31.56
9249;BME280;4660;41.768;26.198;2023-02-20T11:29:12;101326.28;;;17.84;31.14
9249;BME280;4660;41.768;26.198;2023-02-20T11:31:43;101317.81;;;17.79;31.46
9249;BME280;4660;41.768;26.198;2023-02-20T11:34:19;101317.25;;;18.00;30.65
9249;BME280;4660;41.768;26.198;2023-02-20T11:36:52;101311.13;;;17.98;30.23
9249;BME280;4660;41.768;26.198;2023-02-20T11:39:44;101310.31;;;17.81;29.85
9249;BME280;4660;41.768;26.198;2023-02-20T11:42:16;101299.75;;;17.78;30.45
9249;BME280;4660;41.768;26.198;2023-02-20T11:47:34;101281.03;;;17.83;29.94
9249;BME280;4660;41.768;26.198;2023-02-20T11:53:01;101331.56;;;17.94;30.41
9249;BME280;4660;41.768;26.198;2023-02-20T11:55:37;101318.50;;;17.81;30.38
9249;BME280;4660;41.768;26.198;2023-02-20T11:58:04;101321.50;;;18.03;30.22
9249;BME280;4660;41.768;26.198;2023-02-20T12:00:47;101334.72;;;18.22;29.33
9249;BME280;4660;41.768;26.198;2023-02-20T12:03:29;101328.91;;;18.25;29.32
9249;BME280;4660;41.768;26.198;2023-02-20T12:06:41;101318.00;;;18.25;29.24
9249;BME280;4660;41.768;26.198;2023-02-20T12:09:30;101316.81;;;18.20;29.16
9249;BME280;4660;41.768;26.198;2023-02-20T12:11:57;101296.81;;;18.04;29.49
9249;BME280;4660;41.768;26.198;2023-02-20T12:14:24;101311.88;;;18.23;29.51
9249;BME280;4660;41.768;26.198;2023-02-20T12:17:35;101317.16;;;18.25;29.74
9249;BME280;4660;41.768;26.198;2023-02-20T12:20:15;101297.25;;;18.24;28.86
9249;BME280;4660;41.768;26.198;2023-02-20T12:26:19;101304.13;;;18.04;29.04
9249;BME280;4660;41.768;26.198;2023-02-20T12:43:49;101296.00;;;17.96;29.61
9249;BME280;4660;41.768;26.198;2023-02-20T12:49:54;101179.53;;;17.03;28.82
9249;BME280;4660;41.768;26.198;2023-02-20T13:01:35;101299.13;;;17.60;28.72
9249;BME280;4660;41.768;26.198;2023-02-20T13:04:24;101322.91;;;17.66;29.53
9249;BME280;4660;41.768;26.198;2023-02-20T13:07:05;101235.09;;;17.09;29.24
9249;BME280;4660;41.768;26.198;2023-02-20T13:12:35;101245.72;;;17.59;28.95
9249;BME280;4660;41.768;26.198;2023-02-20T13:21:14;101332.78;;;17.26;29.09
9249;BME280;4660;41.768;26.198;2023-02-20T13:23:41;101337.75;;;17.15;28.43
9249;BME280;4660;41.768;26.198;2023-02-20T13:28:52;101338.72;;;17.05;29.29
9249;BME280;4660;41.768;26.198;2023-02-20T13:31:24;101340.25;;;16.92;28.51
9249;BME280;4660;41.768;26.198;2023-02-20T13:36:50;101344.34;;;16.96;28.82
9249;BME280;4660;41.768;26.198;2023-02-20T13:42:00;101317.34;;;17.02;28.11
9249;BME280;4660;41.768;26.198;2023-02-20T13:44:43;101340.63;;;17.38;27.82
9249;BME280;4660;41.768;26.198;2023-02-20T13:47:27;101339.94;;;17.52;27.49
9249;BME280;4660;41.768;26.198;2023-02-20T13:49:57;101343.34;;;17.29;27.66
9249;BME280;4660;41.768;26.198;2023-02-20T13:52:47;101353.03;;;17.16;27.65
9249;BME280;4660;41.768;26.198;2023-02-20T13:55:23;101356.03;;;16.80;27.65
9249;BME280;4660;41.768;26.198;2023-02-20T13:58:04;101349.22;;;16.84;27.96
9249;BME280;4660;41.768;26.198;2023-02-20T14:00:53;101356.56;;;17.00;28.05
9249;BME280;4660;41.768;26.198;2023-02-20T14:03:28;101338.25;;;17.18;27.50
9249;BME280;4660;41.768;26.198;2023-02-20T14:06:13;101336.38;;;17.19;27.03
9249;BME280;4660;41.768;26.198;2023-02-20T14:08:45;101341.31;;;17.15;26.84
9249;BME280;4660;41.768;26.198;2023-02-20T14:11:34;101346.56;;;17.00;27.34
9249;BME280;4660;41.768;26.198;2023-02-20T14:14:29;101348.75;;;16.89;27.57
9249;BME280;4660;41.768;26.198;2023-02-20T14:17:17;101362.56;;;16.61;27.48
9249;BME280;4660;41.768;26.198;2023-02-20T14:19:56;101364.03;;;16.47;27.96
9249;BME280;4660;41.768;26.198;2023-02-20T14:22:33;101347.44;;;16.50;27.72
9249;BME280;4660;41.768;26.198;2023-02-20T14:25:23;101363.91;;;16.57;27.92
9249;BME280;4660;41.768;26.198;2023-02-20T14:28:12;101379.22;;;16.66;27.95
9249;BME280;4660;41.768;26.198;2023-02-20T14:30:42;101380.63;;;16.70;28.19
9249;BME280;4660;41.768;26.198;2023-02-20T14:33:30;101377.47;;;16.57;28.25
9249;BME280;4660;41.768;26.198;2023-02-20T14:41:56;101389.75;;;16.27;28.49
9249;BME280;4660;41.768;26.198;2023-02-20T14:44:25;101397.41;;;16.32;28.56
9249;BME280;4660;41.768;26.198;2023-02-20T14:47:14;101400.28;;;16.30;28.55
9249;BME280;4660;41.768;26.198;2023-02-20T14:49:43;101395.06;;;16.37;28.59
9249;BME280;4660;41.768;26.198;2023-02-20T14:52:24;101401.00;;;16.40;28.36
9249;BME280;4660;41.768;26.198;2023-02-20T14:55:13;101400.16;;;16.40;28.02
9249;BME280;4660;41.768;26.198;2023-02-20T14:57:40;101409.16;;;16.40;28.11
9249;BME280;4660;41.768;26.198;2023-02-20T15:00:23;101408.97;;;16.34;28.28
9249;BME280;4660;41.768;26.198;2023-02-20T15:02:53;101416.00;;;16.18;28.49
9249;BME280;4660;41.768;26.198;2023-02-20T15:05:32;101381.50;;;15.85;28.49
9249;BME280;4660;41.768;26.198;2023-02-20T15:08:26;101407.13;;;15.82;28.57
9249;BME280;4660;41.768;26.198;2023-02-20T15:10:55;101420.22;;;15.87;29.05
9249;BME280;4660;41.768;26.198;2023-02-20T15:13:25;101421.59;;;15.91;28.59
9249;BME280;4660;41.768;26.198;2023-02-20T15:16:07;101413.84;;;15.96;28.73
9249;BME280;4660;41.768;26.198;2023-02-20T15:18:42;101431.63;;;16.16;28.57